sensor_id;sensor_type;location;lat;lon;timestamp;temperature;humidity
32173;DHT22;18679;45.190;5.722;2023-07-31T00:00:58;24.20;41.20
32173;DHT22;18679;45.190;5.722;2023-07-31T00:03:59;24.20;41.30
32173;DHT22;18679;45.190;5.722;2023-07-31T00:06:59;24.10;41.40
32173;DHT22;18679;45.190;5.722;2023-07-31T00:10:00;24.10;41.60
32173;DHT22;18679;45.190;5.722;2023-07-31T00:13:01;24.00;41.70
32173;DHT22;18679;45.190;5.722;2023-07-31T00:16:02;23.90;41.80
32173;DHT22;18679;45.190;5.722;2023-07-31T00:19:03;23.90;41.90
32173;DHT22;18679;45.190;5.722;2023-07-31T00:22:04;23.80;42.10
32173;DHT22;18679;45.190;5.722;2023-07-31T00:25:05;23.80;42.30
32173;DHT22;18679;45.190;5.722;2023-07-31T00:28:06;23.70;42.30
32173;DHT22;18679;45.190;5.722;2023-07-31T00:31:07;23.70;42.40
32173;DHT22;18679;45.190;5.722;2023-07-31T00:34:08;23.70;42.40
32173;DHT22;18679;45.190;5.722;2023-07-31T00:37:09;23.70;42.40
32173;DHT22;18679;45.190;5.722;2023-07-31T00:40:11;23.70;42.60
32173;DHT22;18679;45.190;5.722;2023-07-31T00:43:12;23.70;42.80
32173;DHT22;18679;45.190;5.722;2023-07-31T00:46:13;24.20;43.20
32173;DHT22;18679;45.190;5.722;2023-07-31T00:49:15;23.60;43.20
32173;DHT22;18679;45.190;5.722;2023-07-31T00:52:17;23.60;43.40
32173;DHT22;18679;45.190;5.722;2023-07-31T00:55:18;23.60;43.60
32173;DHT22;18679;45.190;5.722;2023-07-31T00:58:19;23.60;43.70
32173;DHT22;18679;45.190;5.722;2023-07-31T01:01:20;23.60;43.90
32173;DHT22;18679;45.190;5.722;2023-07-31T01:04:21;23.50;43.90
32173;DHT22;18679;45.190;5.722;2023-07-31T01:07:25;23.50;44.10
32173;DHT22;18679;45.190;5.722;2023-07-31T01:10:33;23.50;44.10
32173;DHT22;18679;45.190;5.722;2023-07-31T01:13:36;23.40;44.10
32173;DHT22;18679;45.190;5.722;2023-07-31T01:16:37;23.40;44.20
32173;DHT22;18679;45.190;5.722;2023-07-31T01:19:39;23.40;44.30
32173;DHT22;18679;45.190;5.722;2023-07-31T01:26:05;23.30;44.30
32173;DHT22;18679;45.190;5.722;2023-07-31T01:29:17;23.30;44.60
32173;DHT22;18679;45.190;5.722;2023-07-31T01:32:22;23.30;44.80
32173;DHT22;18679;45.190;5.722;2023-07-31T01:35:24;23.20;44.90
32173;DHT22;18679;45.190;5.722;2023-07-31T01:38:25;23.10;45.20
32173;DHT22;18679;45.190;5.722;2023-07-31T01:41:26;23.00;45.30
32173;DHT22;18679;45.190;5.722;2023-07-31T01:44:27;23.00;45.40
32173;DHT22;18679;45.190;5.722;2023-07-31T01:47:28;23.00;45.50
32173;DHT22;18679;45.190;5.722;2023-07-31T01:50:29;22.90;45.70
32173;DHT22;18679;45.190;5.722;2023-07-31T01:53:31;22.80;46.00
32173;DHT22;18679;45.190;5.722;2023-07-31T01:56:32;22.80;46.20
32173;DHT22;18679;45.190;5.722;2023-07-31T01:59:33;22.50;46.30
32173;DHT22;18679;45.190;5.722;2023-07-31T02:02:34;22.70;46.60
32173;DHT22;18679;45.190;5.722;2023-07-31T02:05:35;22.70;46.60
32173;DHT22;18679;45.190;5.722;2023-07-31T02:08:36;22.70;46.60
32173;DHT22;18679;45.190;5.722;2023-07-31T02:11:37;22.70;46.60
32173;DHT22;18679;45.190;5.722;2023-07-31T02:14:37;22.60;46.70
32173;DHT22;18679;45.190;5.722;2023-07-31T02:17:38;22.60;46.80
32173;DHT22;18679;45.190;5.722;2023-07-31T02:20:39;22.60;46.80
32173;DHT22;18679;45.190;5.722;2023-07-31T02:23:40;22.60;46.80
32173;DHT22;18679;45.190;5.722;2023-07-31T02:26:40;22.60;46.90
32173;DHT22;18679;45.190;5.722;2023-07-31T02:29:42;22.60;47.10
32173;DHT22;18679;45.190;5.722;2023-07-31T02:32:43;22.50;47.20
32173;DHT22;18679;45.190;5.722;2023-07-31T02:35:44;22.50;47.30
32173;DHT22;18679;45.190;5.722;2023-07-31T02:38:45;22.50;47.30
32173;DHT22;18679;45.190;5.722;2023-07-31T02:41:46;22.50;47.30
32173;DHT22;18679;45.190;5.722;2023-07-31T02:44:47;22.50;47.30
32173;DHT22;18679;45.190;5.722;2023-07-31T02:47:50;22.50;47.40
32173;DHT22;18679;45.190;5.722;2023-07-31T02:50:51;22.50;47.40
32173;DHT22;18679;45.190;5.722;2023-07-31T02:53:52;22.40;47.30
32173;DHT22;18679;45.190;5.722;2023-07-31T02:56:53;22.40;47.40
32173;DHT22;18679;45.190;5.722;2023-07-31T02:59:56;22.40;47.50
32173;DHT22;18679;45.190;5.722;2023-07-31T03:02:56;22.40;47.50
32173;DHT22;18679;45.190;5.722;2023-07-31T03:05:57;22.50;47.50
32173;DHT22;18679;45.190;5.722;2023-07-31T03:08:58;22.40;47.50
32173;DHT22;18679;45.190;5.722;2023-07-31T03:11:59;22.40;47.60
32173;DHT22;18679;45.190;5.722;2023-07-31T03:15:00;22.40;47.80
32173;DHT22;18679;45.190;5.722;2023-07-31T03:18:01;22.30;47.80
32173;DHT22;18679;45.190;5.722;2023-07-31T03:21:02;22.30;47.90
32173;DHT22;18679;45.190;5.722;2023-07-31T03:24:03;22.30;48.20
32173;DHT22;18679;45.190;5.722;2023-07-31T03:27:04;22.20;48.40
32173;DHT22;18679;45.190;5.722;2023-07-31T03:30:06;22.20;48.60
32173;DHT22;18679;45.190;5.722;2023-07-31T03:33:07;22.10;48.70
32173;DHT22;18679;45.190;5.722;2023-07-31T03:36:08;22.10;48.70
32173;DHT22;18679;45.190;5.722;2023-07-31T03:39:09;22.00;48.80
32173;DHT22;18679;45.190;5.722;2023-07-31T03:42:10;22.00;48.90
32173;DHT22;18679;45.190;5.722;2023-07-31T03:45:11;21.90;49.00
32173;DHT22;18679;45.190;5.722;2023-07-31T03:48:11;21.90;49.20
32173;DHT22;18679;45.190;5.722;2023-07-31T03:51:12;21.80;49.20
32173;DHT22;18679;45.190;5.722;2023-07-31T03:54:13;21.80;49.20
32173;DHT22;18679;45.190;5.722;2023-07-31T03:57:14;21.80;49.30
32173;DHT22;18679;45.190;5.722;2023-07-31T04:00:15;21.80;49.30
32173;DHT22;18679;45.190;5.722;2023-07-31T04:03:16;21.80;49.40
32173;DHT22;18679;45.190;5.722;2023-07-31T04:06:16;21.80;49.30
32173;DHT22;18679;45.190;5.722;2023-07-31T04:09:18;21.80;49.20
32173;DHT22;18679;45.190;5.722;2023-07-31T04:12:20;21.90;49.30
32173;DHT22;18679;45.190;5.722;2023-07-31T04:15:20;21.90;49.30
32173;DHT22;18679;45.190;5.722;2023-07-31T04:18:24;21.90;49.30
32173;DHT22;18679;45.190;5.722;2023-07-31T04:21:25;21.80;49.30
32173;DHT22;18679;45.190;5.722;2023-07-31T04:24:26;21.80;49.40
32173;DHT22;18679;45.190;5.722;2023-07-31T04:27:26;21.80;49.60
32173;DHT22;18679;45.190;5.722;2023-07-31T04:30:27;21.80;49.80
32173;DHT22;18679;45.190;5.722;2023-07-31T04:33:28;21.70;49.80
32173;DHT22;18679;45.190;5.722;2023-07-31T04:36:29;21.80;49.80
32173;DHT22;18679;45.190;5.722;2023-07-31T04:39:29;21.70;49.80
32173;DHT22;18679;45.190;5.722;2023-07-31T04:42:30;21.80;49.80
32173;DHT22;18679;45.190;5.722;2023-07-31T04:45:31;21.70;49.90
32173;DHT22;18679;45.190;5.722;2023-07-31T04:48:32;21.70;50.10
32173;DHT22;18679;45.190;5.722;2023-07-31T04:51:33;21.70;50.30
32173;DHT22;18679;45.190;5.722;2023-07-31T04:54:33;21.70;50.30
32173;DHT22;18679;45.190;5.722;2023-07-31T04:57:34;21.70;50.30
32173;DHT22;18679;45.190;5.722;2023-07-31T05:00:35;21.70;50.30
32173;DHT22;18679;45.190;5.722;2023-07-31T05:03:36;21.70;50.30
32173;DHT22;18679;45.190;5.722;2023-07-31T05:06:36;21.70;50.40
32173;DHT22;18679;45.190;5.722;2023-07-31T05:09:37;21.70;50.50
32173;DHT22;18679;45.190;5.722;2023-07-31T05:12:39;21.60;50.50
32173;DHT22;18679;45.190;5.722;2023-07-31T05:15:41;21.70;50.50
32173;DHT22;18679;45.190;5.722;2023-07-31T05:18:42;21.70;50.50
32173;DHT22;18679;45.190;5.722;2023-07-31T05:21:43;21.70;50.40
32173;DHT22;18679;45.190;5.722;2023-07-31T05:24:43;21.70;50.30
32173;DHT22;18679;45.190;5.722;2023-07-31T05:27:44;21.70;50.40
32173;DHT22;18679;45.190;5.722;2023-07-31T05:30:45;21.70;50.50
32173;DHT22;18679;45.190;5.722;2023-07-31T05:33:46;21.70;50.70
32173;DHT22;18679;45.190;5.722;2023-07-31T05:36:47;21.80;50.90
32173;DHT22;18679;45.190;5.722;2023-07-31T05:39:48;21.70;51.00
32173;DHT22;18679;45.190;5.722;2023-07-31T05:42:48;21.70;51.00
32173;DHT22;18679;45.190;5.722;2023-07-31T05:45:50;21.70;51.00
32173;DHT22;18679;45.190;5.722;2023-07-31T05:48:51;21.80;51.00
32173;DHT22;18679;45.190;5.722;2023-07-31T05:51:52;21.80;51.00
32173;DHT22;18679;45.190;5.722;2023-07-31T05:54:53;21.80;51.00
32173;DHT22;18679;45.190;5.722;2023-07-31T05:57:54;21.90;50.90
32173;DHT22;18679;45.190;5.722;2023-07-31T06:00:55;21.90;51.00
32173;DHT22;18679;45.190;5.722;2023-07-31T06:03:56;22.00;51.00
32173;DHT22;18679;45.190;5.722;2023-07-31T06:06:56;21.90;51.00
32173;DHT22;18679;45.190;5.722;2023-07-31T06:09:58;22.00;50.90
32173;DHT22;18679;45.190;5.722;2023-07-31T06:13:04;22.00;50.90
32173;DHT22;18679;45.190;5.722;2023-07-31T06:16:05;22.00;51.20
32173;DHT22;18679;45.190;5.722;2023-07-31T06:19:06;22.00;50.80
32173;DHT22;18679;45.190;5.722;2023-07-31T06:22:07;22.00;50.80
32173;DHT22;18679;45.190;5.722;2023-07-31T06:25:08;22.00;50.90
32173;DHT22;18679;45.190;5.722;2023-07-31T06:28:09;22.00;51.00
32173;DHT22;18679;45.190;5.722;2023-07-31T06:31:10;22.00;51.00
32173;DHT22;18679;45.190;5.722;2023-07-31T06:34:11;22.10;50.90
32173;DHT22;18679;45.190;5.722;2023-07-31T06:37:11;22.10;50.80
32173;DHT22;18679;45.190;5.722;2023-07-31T06:40:12;22.10;50.70
32173;DHT22;18679;45.190;5.722;2023-07-31T06:43:13;22.20;50.40
32173;DHT22;18679;45.190;5.722;2023-07-31T06:46:14;22.20;50.30
32173;DHT22;18679;45.190;5.722;2023-07-31T06:49:15;22.30;50.20
32173;DHT22;18679;45.190;5.722;2023-07-31T06:52:16;22.40;49.90
32173;DHT22;18679;45.190;5.722;2023-07-31T06:55:19;22.40;49.70
32173;DHT22;18679;45.190;5.722;2023-07-31T06:58:20;22.50;49.60
32173;DHT22;18679;45.190;5.722;2023-07-31T07:01:21;22.60;49.30
32173;DHT22;18679;45.190;5.722;2023-07-31T07:04:22;22.80;49.00
32173;DHT22;18679;45.190;5.722;2023-07-31T07:07:22;22.80;48.70
32173;DHT22;18679;45.190;5.722;2023-07-31T07:10:23;23.00;48.40
32173;DHT22;18679;45.190;5.722;2023-07-31T07:13:24;23.10;48.10
32173;DHT22;18679;45.190;5.722;2023-07-31T07:16:25;23.20;47.80
32173;DHT22;18679;45.190;5.722;2023-07-31T07:19:25;23.30;47.70
32173;DHT22;18679;45.190;5.722;2023-07-31T07:22:27;23.40;47.50
32173;DHT22;18679;45.190;5.722;2023-07-31T07:25:28;23.50;47.10
32173;DHT22;18679;45.190;5.722;2023-07-31T07:28:28;23.60;46.90
32173;DHT22;18679;45.190;5.722;2023-07-31T07:31:29;23.60;46.80
32173;DHT22;18679;45.190;5.722;2023-07-31T07:34:30;23.70;46.70
32173;DHT22;18679;45.190;5.722;2023-07-31T07:37:31;23.80;46.40
32173;DHT22;18679;45.190;5.722;2023-07-31T07:40:31;23.90;46.20
32173;DHT22;18679;45.190;5.722;2023-07-31T07:43:32;24.10;45.90
32173;DHT22;18679;45.190;5.722;2023-07-31T07:46:33;24.20;45.30
32173;DHT22;18679;45.190;5.722;2023-07-31T07:49:34;24.30;45.00
32173;DHT22;18679;45.190;5.722;2023-07-31T07:52:36;24.40;44.80
32173;DHT22;18679;45.190;5.722;2023-07-31T07:55:37;24.50;44.50
32173;DHT22;18679;45.190;5.722;2023-07-31T07:58:37;24.70;44.30
32173;DHT22;18679;45.190;5.722;2023-07-31T08:01:38;24.80;43.70
32173;DHT22;18679;45.190;5.722;2023-07-31T08:04:39;24.90;43.10
32173;DHT22;18679;45.190;5.722;2023-07-31T08:07:40;24.90;42.90
32173;DHT22;18679;45.190;5.722;2023-07-31T08:10:40;24.90;42.90
32173;DHT22;18679;45.190;5.722;2023-07-31T08:13:41;25.00;42.80
32173;DHT22;18679;45.190;5.722;2023-07-31T08:16:42;25.10;42.80
32173;DHT22;18679;45.190;5.722;2023-07-31T08:19:43;25.10;42.50
32173;DHT22;18679;45.190;5.722;2023-07-31T08:22:44;25.30;42.40
32173;DHT22;18679;45.190;5.722;2023-07-31T08:25:45;25.40;41.90
32173;DHT22;18679;45.190;5.722;2023-07-31T08:28:47;25.40;42.00
32173;DHT22;18679;45.190;5.722;2023-07-31T08:31:48;25.40;41.90
32173;DHT22;18679;45.190;5.722;2023-07-31T08:34:48;25.40;41.90
32173;DHT22;18679;45.190;5.722;2023-07-31T08:37:49;25.50;42.00
32173;DHT22;18679;45.190;5.722;2023-07-31T08:40:50;25.60;41.80
32173;DHT22;18679;45.190;5.722;2023-07-31T08:43:52;25.60;41.60
32173;DHT22;18679;45.190;5.722;2023-07-31T08:46:53;25.80;41.40
32173;DHT22;18679;45.190;5.722;2023-07-31T08:49:55;25.80;41.00
32173;DHT22;18679;45.190;5.722;2023-07-31T08:52:57;25.90;40.70
32173;DHT22;18679;45.190;5.722;2023-07-31T08:55:59;26.10;40.30
32173;DHT22;18679;45.190;5.722;2023-07-31T08:59:02;26.20;39.90
32173;DHT22;18679;45.190;5.722;2023-07-31T09:02:07;26.30;39.40
32173;DHT22;18679;45.190;5.722;2023-07-31T09:05:09;26.40;39.10
32173;DHT22;18679;45.190;5.722;2023-07-31T09:08:12;26.50;38.80
32173;DHT22;18679;45.190;5.722;2023-07-31T09:11:14;26.60;39.30
32173;DHT22;18679;45.190;5.722;2023-07-31T09:14:15;26.70;38.50
32173;DHT22;18679;45.190;5.722;2023-07-31T09:17:37;26.80;38.20
32173;DHT22;18679;45.190;5.722;2023-07-31T09:20:38;26.80;38.00
32173;DHT22;18679;45.190;5.722;2023-07-31T09:23:46;26.90;37.80
32173;DHT22;18679;45.190;5.722;2023-07-31T09:26:54;26.90;37.50
32173;DHT22;18679;45.190;5.722;2023-07-31T09:29:59;26.90;37.50
32173;DHT22;18679;45.190;5.722;2023-07-31T09:33:04;27.00;37.30
32173;DHT22;18679;45.190;5.722;2023-07-31T09:36:08;27.00;37.10
32173;DHT22;18679;45.190;5.722;2023-07-31T09:39:10;27.10;37.20
32173;DHT22;18679;45.190;5.722;2023-07-31T09:42:11;27.10;37.10
32173;DHT22;18679;45.190;5.722;2023-07-31T09:45:13;27.20;37.00
32173;DHT22;18679;45.190;5.722;2023-07-31T09:48:18;27.40;36.80
32173;DHT22;18679;45.190;5.722;2023-07-31T09:51:26;27.40;36.60
32173;DHT22;18679;45.190;5.722;2023-07-31T09:54:27;27.50;36.40
32173;DHT22;18679;45.190;5.722;2023-07-31T09:57:28;27.60;36.20
32173;DHT22;18679;45.190;5.722;2023-07-31T10:00:30;27.70;35.80
32173;DHT22;18679;45.190;5.722;2023-07-31T10:03:31;27.80;35.60
32173;DHT22;18679;45.190;5.722;2023-07-31T10:06:34;27.80;35.70
32173;DHT22;18679;45.190;5.722;2023-07-31T10:09:35;27.90;35.50
32173;DHT22;18679;45.190;5.722;2023-07-31T10:12:37;27.90;35.10
32173;DHT22;18679;45.190;5.722;2023-07-31T10:15:38;27.90;35.20
32173;DHT22;18679;45.190;5.722;2023-07-31T10:18:40;27.90;35.30
32173;DHT22;18679;45.190;5.722;2023-07-31T10:21:42;28.00;35.10
32173;DHT22;18679;45.190;5.722;2023-07-31T10:24:43;28.20;35.00
32173;DHT22;18679;45.190;5.722;2023-07-31T10:27:45;28.30;34.70
32173;DHT22;18679;45.190;5.722;2023-07-31T10:30:48;28.30;34.60
32173;DHT22;18679;45.190;5.722;2023-07-31T10:33:51;28.40;34.60
32173;DHT22;18679;45.190;5.722;2023-07-31T10:40:31;28.50;34.20
32173;DHT22;18679;45.190;5.722;2023-07-31T10:43:33;28.50;34.10
32173;DHT22;18679;45.190;5.722;2023-07-31T10:46:33;28.60;33.90
32173;DHT22;18679;45.190;5.722;2023-07-31T10:49:34;28.70;33.50
32173;DHT22;18679;45.190;5.722;2023-07-31T10:52:35;28.70;33.90
32173;DHT22;18679;45.190;5.722;2023-07-31T10:55:40;28.70;33.40
32173;DHT22;18679;45.190;5.722;2023-07-31T10:58:44;28.60;33.40
32173;DHT22;18679;45.190;5.722;2023-07-31T11:01:54;28.60;33.40
32173;DHT22;18679;45.190;5.722;2023-07-31T11:05:10;28.70;33.50
32173;DHT22;18679;45.190;5.722;2023-07-31T11:11:20;29.90;32.50
32173;DHT22;18679;45.190;5.722;2023-07-31T11:14:21;30.40;31.40
32173;DHT22;18679;45.190;5.722;2023-07-31T11:17:25;31.00;30.70
32173;DHT22;18679;45.190;5.722;2023-07-31T11:20:27;31.60;30.00
32173;DHT22;18679;45.190;5.722;2023-07-31T11:23:30;32.00;29.50
32173;DHT22;18679;45.190;5.722;2023-07-31T11:26:31;32.30;28.80
32173;DHT22;18679;45.190;5.722;2023-07-31T11:29:32;32.60;28.60
32173;DHT22;18679;45.190;5.722;2023-07-31T11:32:32;33.00;28.30
32173;DHT22;18679;45.190;5.722;2023-07-31T11:35:35;33.40;28.00
32173;DHT22;18679;45.190;5.722;2023-07-31T11:38:36;33.90;27.50
32173;DHT22;18679;45.190;5.722;2023-07-31T11:41:41;34.40;27.10
32173;DHT22;18679;45.190;5.722;2023-07-31T11:44:42;34.80;26.50
32173;DHT22;18679;45.190;5.722;2023-07-31T11:47:48;35.10;25.80
32173;DHT22;18679;45.190;5.722;2023-07-31T11:50:51;35.20;25.40
32173;DHT22;18679;45.190;5.722;2023-07-31T11:53:56;35.30;25.30
32173;DHT22;18679;45.190;5.722;2023-07-31T11:56:58;35.50;25.20
32173;DHT22;18679;45.190;5.722;2023-07-31T12:00:01;35.60;25.20
32173;DHT22;18679;45.190;5.722;2023-07-31T12:03:05;35.70;25.30
32173;DHT22;18679;45.190;5.722;2023-07-31T12:06:06;36.00;25.10
32173;DHT22;18679;45.190;5.722;2023-07-31T12:09:07;36.30;24.80
32173;DHT22;18679;45.190;5.722;2023-07-31T12:12:08;36.60;24.30
32173;DHT22;18679;45.190;5.722;2023-07-31T12:15:18;36.90;23.80
32173;DHT22;18679;45.190;5.722;2023-07-31T12:18:21;37.20;23.80
32173;DHT22;18679;45.190;5.722;2023-07-31T12:21:22;37.50;23.40
32173;DHT22;18679;45.190;5.722;2023-07-31T12:24:23;37.90;23.00
32173;DHT22;18679;45.190;5.722;2023-07-31T12:27:24;38.20;22.70
32173;DHT22;18679;45.190;5.722;2023-07-31T12:30:34;38.60;22.30
32173;DHT22;18679;45.190;5.722;2023-07-31T12:33:36;39.00;22.10
32173;DHT22;18679;45.190;5.722;2023-07-31T12:36:38;39.40;21.90
32173;DHT22;18679;45.190;5.722;2023-07-31T12:39:40;39.60;21.80
32173;DHT22;18679;45.190;5.722;2023-07-31T12:42:41;39.80;21.70
32173;DHT22;18679;45.190;5.722;2023-07-31T12:45:42;40.00;21.60
32173;DHT22;18679;45.190;5.722;2023-07-31T12:48:43;40.20;21.40
32173;DHT22;18679;45.190;5.722;2023-07-31T12:51:44;40.40;21.20
32173;DHT22;18679;45.190;5.722;2023-07-31T12:54:44;40.30;21.00
32173;DHT22;18679;45.190;5.722;2023-07-31T12:57:45;40.50;21.10
32173;DHT22;18679;45.190;5.722;2023-07-31T13:00:46;40.80;20.80
32173;DHT22;18679;45.190;5.722;2023-07-31T13:03:47;41.30;20.50
32173;DHT22;18679;45.190;5.722;2023-07-31T13:06:48;41.70;20.00
32173;DHT22;18679;45.190;5.722;2023-07-31T13:09:49;41.90;19.60
32173;DHT22;18679;45.190;5.722;2023-07-31T13:12:49;42.00;19.50
32173;DHT22;18679;45.190;5.722;2023-07-31T13:15:50;42.30;19.40
32173;DHT22;18679;45.190;5.722;2023-07-31T13:18:51;42.90;19.10
32173;DHT22;18679;45.190;5.722;2023-07-31T13:21:53;43.60;18.60
32173;DHT22;18679;45.190;5.722;2023-07-31T13:24:54;44.30;18.10
32173;DHT22;18679;45.190;5.722;2023-07-31T13:27:55;44.70;17.60
32173;DHT22;18679;45.190;5.722;2023-07-31T13:30:56;44.90;17.50
32173;DHT22;18679;45.190;5.722;2023-07-31T13:33:57;45.30;17.20
32173;DHT22;18679;45.190;5.722;2023-07-31T13:36:57;45.60;17.00
32173;DHT22;18679;45.190;5.722;2023-07-31T13:39:58;45.90;16.80
32173;DHT22;18679;45.190;5.722;2023-07-31T13:42:59;46.20;16.60
32173;DHT22;18679;45.190;5.722;2023-07-31T13:46:00;46.40;16.50
32173;DHT22;18679;45.190;5.722;2023-07-31T13:49:07;46.70;16.40
32173;DHT22;18679;45.190;5.722;2023-07-31T13:52:07;47.20;16.20
32173;DHT22;18679;45.190;5.722;2023-07-31T13:55:08;47.50;15.80
32173;DHT22;18679;45.190;5.722;2023-07-31T13:58:09;47.50;15.60
32173;DHT22;18679;45.190;5.722;2023-07-31T14:01:10;47.60;15.70
32173;DHT22;18679;45.190;5.722;2023-07-31T14:04:10;47.80;15.60
32173;DHT22;18679;45.190;5.722;2023-07-31T14:07:11;47.90;15.30
32173;DHT22;18679;45.190;5.722;2023-07-31T14:10:12;48.10;15.20
32173;DHT22;18679;45.190;5.722;2023-07-31T14:13:13;48.20;15.00
32173;DHT22;18679;45.190;5.722;2023-07-31T14:16:14;48.40;15.00
32173;DHT22;18679;45.190;5.722;2023-07-31T14:19:15;48.50;14.80
32173;DHT22;18679;45.190;5.722;2023-07-31T14:22:15;48.40;14.60
32173;DHT22;18679;45.190;5.722;2023-07-31T14:25:27;48.10;14.60
32173;DHT22;18679;45.190;5.722;2023-07-31T14:28:28;48.10;15.10
32173;DHT22;18679;45.190;5.722;2023-07-31T14:31:28;48.10;14.50
32173;DHT22;18679;45.190;5.722;2023-07-31T14:34:29;47.90;14.50
32173;DHT22;18679;45.190;5.722;2023-07-31T14:37:40;47.50;14.60
32173;DHT22;18679;45.190;5.722;2023-07-31T14:40:41;47.30;14.70
32173;DHT22;18679;45.190;5.722;2023-07-31T14:43:42;47.20;14.70
32173;DHT22;18679;45.190;5.722;2023-07-31T14:46:43;47.00;14.70
32173;DHT22;18679;45.190;5.722;2023-07-31T14:49:44;47.00;14.70
32173;DHT22;18679;45.190;5.722;2023-07-31T14:52:45;46.90;15.00
32173;DHT22;18679;45.190;5.722;2023-07-31T14:55:45;46.70;14.60
32173;DHT22;18679;45.190;5.722;2023-07-31T14:58:46;46.00;14.90
32173;DHT22;18679;45.190;5.722;2023-07-31T15:01:47;44.50;15.60
32173;DHT22;18679;45.190;5.722;2023-07-31T15:04:49;42.90;16.50
32173;DHT22;18679;45.190;5.722;2023-07-31T15:07:50;41.40;17.30
32173;DHT22;18679;45.190;5.722;2023-07-31T15:10:50;40.20;18.10
32173;DHT22;18679;45.190;5.722;2023-07-31T15:13:57;39.10;18.80
32173;DHT22;18679;45.190;5.722;2023-07-31T15:16:58;38.10;19.40
32173;DHT22;18679;45.190;5.722;2023-07-31T15:19:59;37.20;20.00
32173;DHT22;18679;45.190;5.722;2023-07-31T15:23:00;36.50;20.50
32173;DHT22;18679;45.190;5.722;2023-07-31T15:26:01;35.90;21.00
32173;DHT22;18679;45.190;5.722;2023-07-31T15:29:04;35.50;21.40
32173;DHT22;18679;45.190;5.722;2023-07-31T15:32:09;36.20;21.10
32173;DHT22;18679;45.190;5.722;2023-07-31T15:35:10;37.50;20.20
32173;DHT22;18679;45.190;5.722;2023-07-31T15:38:11;38.80;19.40
32173;DHT22;18679;45.190;5.722;2023-07-31T15:41:11;40.00;18.70
32173;DHT22;18679;45.190;5.722;2023-07-31T15:44:12;41.20;18.10
32173;DHT22;18679;45.190;5.722;2023-07-31T15:47:14;42.20;17.60
32173;DHT22;18679;45.190;5.722;2023-07-31T15:50:14;42.90;17.10
32173;DHT22;18679;45.190;5.722;2023-07-31T15:53:15;43.70;16.80
32173;DHT22;18679;45.190;5.722;2023-07-31T15:56:16;44.10;16.20
32173;DHT22;18679;45.190;5.722;2023-07-31T15:59:17;44.00;16.10
32173;DHT22;18679;45.190;5.722;2023-07-31T16:02:18;44.10;16.10
32173;DHT22;18679;45.190;5.722;2023-07-31T16:05:19;44.10;16.00
32173;DHT22;18679;45.190;5.722;2023-07-31T16:08:20;44.10;15.90
32173;DHT22;18679;45.190;5.722;2023-07-31T16:11:21;44.00;15.90
32173;DHT22;18679;45.190;5.722;2023-07-31T16:14:22;44.00;15.90
32173;DHT22;18679;45.190;5.722;2023-07-31T16:17:22;44.00;16.00
32173;DHT22;18679;45.190;5.722;2023-07-31T16:20:23;44.20;16.00
32173;DHT22;18679;45.190;5.722;2023-07-31T16:23:24;44.40;16.00
32173;DHT22;18679;45.190;5.722;2023-07-31T16:26:25;44.60;15.80
32173;DHT22;18679;45.190;5.722;2023-07-31T16:29:26;44.50;15.70
32173;DHT22;18679;45.190;5.722;2023-07-31T16:32:29;44.40;15.80
32173;DHT22;18679;45.190;5.722;2023-07-31T16:35:30;44.20;15.70
32173;DHT22;18679;45.190;5.722;2023-07-31T16:38:31;44.00;15.90
32173;DHT22;18679;45.190;5.722;2023-07-31T16:41:33;43.80;16.10
32173;DHT22;18679;45.190;5.722;2023-07-31T16:44:34;43.50;16.30
32173;DHT22;18679;45.190;5.722;2023-07-31T16:47:35;43.10;16.50
32173;DHT22;18679;45.190;5.722;2023-07-31T16:50:35;42.10;17.10
32173;DHT22;18679;45.190;5.722;2023-07-31T16:53:36;40.70;17.90
32173;DHT22;18679;45.190;5.722;2023-07-31T16:56:37;39.40;18.80
32173;DHT22;18679;45.190;5.722;2023-07-31T16:59:38;38.20;19.80
32173;DHT22;18679;45.190;5.722;2023-07-31T17:02:38;37.30;20.50
32173;DHT22;18679;45.190;5.722;2023-07-31T17:05:39;36.40;21.10
32173;DHT22;18679;45.190;5.722;2023-07-31T17:08:40;35.70;21.60
32173;DHT22;18679;45.190;5.722;2023-07-31T17:11:41;35.20;22.10
32173;DHT22;18679;45.190;5.722;2023-07-31T17:14:42;34.70;22.60
32173;DHT22;18679;45.190;5.722;2023-07-31T17:17:42;34.30;23.00
32173;DHT22;18679;45.190;5.722;2023-07-31T17:20:44;33.90;23.30
32173;DHT22;18679;45.190;5.722;2023-07-31T17:23:45;33.60;23.70
32173;DHT22;18679;45.190;5.722;2023-07-31T17:26:46;33.40;23.90
32173;DHT22;18679;45.190;5.722;2023-07-31T17:29:46;33.20;24.10
32173;DHT22;18679;45.190;5.722;2023-07-31T17:32:47;33.10;24.20
32173;DHT22;18679;45.190;5.722;2023-07-31T17:35:48;32.90;24.30
32173;DHT22;18679;45.190;5.722;2023-07-31T17:38:49;32.80;24.50
32173;DHT22;18679;45.190;5.722;2023-07-31T17:41:49;32.60;24.50
32173;DHT22;18679;45.190;5.722;2023-07-31T17:44:50;32.50;24.60
32173;DHT22;18679;45.190;5.722;2023-07-31T17:47:53;32.40;24.70
32173;DHT22;18679;45.190;5.722;2023-07-31T17:50:54;32.40;24.90
32173;DHT22;18679;45.190;5.722;2023-07-31T17:53:55;32.30;24.90
32173;DHT22;18679;45.190;5.722;2023-07-31T17:56:56;32.30;25.00
32173;DHT22;18679;45.190;5.722;2023-07-31T17:59:57;32.20;25.10
32173;DHT22;18679;45.190;5.722;2023-07-31T18:02:58;32.40;25.40
32173;DHT22;18679;45.190;5.722;2023-07-31T18:05:59;32.20;25.40
32173;DHT22;18679;45.190;5.722;2023-07-31T18:09:00;32.10;25.60
32173;DHT22;18679;45.190;5.722;2023-07-31T18:12:01;32.10;25.80
32173;DHT22;18679;45.190;5.722;2023-07-31T18:15:03;31.90;25.90
32173;DHT22;18679;45.190;5.722;2023-07-31T18:18:04;31.80;26.10
32173;DHT22;18679;45.190;5.722;2023-07-31T18:21:05;31.70;26.30
32173;DHT22;18679;45.190;5.722;2023-07-31T18:24:06;31.60;26.40
32173;DHT22;18679;45.190;5.722;2023-07-31T18:27:07;31.50;26.60
32173;DHT22;18679;45.190;5.722;2023-07-31T18:30:08;31.40;26.90
32173;DHT22;18679;45.190;5.722;2023-07-31T18:33:09;31.30;27.10
32173;DHT22;18679;45.190;5.722;2023-07-31T18:36:10;31.20;27.20
32173;DHT22;18679;45.190;5.722;2023-07-31T18:39:11;31.10;27.30
32173;DHT22;18679;45.190;5.722;2023-07-31T18:42:11;31.10;27.50
32173;DHT22;18679;45.190;5.722;2023-07-31T18:45:13;30.90;27.60
32173;DHT22;18679;45.190;5.722;2023-07-31T18:48:14;30.90;27.80
32173;DHT22;18679;45.190;5.722;2023-07-31T18:51:15;30.80;28.00
32173;DHT22;18679;45.190;5.722;2023-07-31T18:54:16;30.70;28.20
32173;DHT22;18679;45.190;5.722;2023-07-31T18:57:16;30.60;28.70
32173;DHT22;18679;45.190;5.722;2023-07-31T19:00:17;30.50;29.00
32173;DHT22;18679;45.190;5.722;2023-07-31T19:03:18;30.30;29.40
32173;DHT22;18679;45.190;5.722;2023-07-31T19:06:19;30.20;29.70
32173;DHT22;18679;45.190;5.722;2023-07-31T19:09:30;30.10;30.00
32173;DHT22;18679;45.190;5.722;2023-07-31T19:12:33;30.00;30.40
32173;DHT22;18679;45.190;5.722;2023-07-31T19:15:35;29.90;30.60